Time;durP1;ratioP1;P1;durP2;ratioP2;P2;SDS_P1;SDS_P2;PMS_P1;PMS_P2;Temp;Humidity;BMP_temperature;BMP_pressure;BME280_temperature;BME280_humidity;BME280_pressure;Samples;Min_cycle;Max_cycle;Signal;HPM_P1;HPM_P2
2021/05/19 00:01:22;;;;;;;1.50;1.40;;;10.00;99.90;;;;;;5036738;28;20025;-90
2021/05/19 00:03:48;;;;;;;2.50;1.48;;;9.90;99.90;;;;;;5035034;28;20056;-82
2021/05/19 00:06:14;;;;;;;1.75;1.65;;;9.80;99.90;;;;;;5032760;28;20029;-80
2021/05/19 00:08:40;;;;;;;1.60;1.50;;;9.80;99.90;;;;;;5033211;28;20036;-80
2021/05/19 00:11:07;;;;;;;2.30;1.80;;;9.70;99.90;;;;;;5032319;28;20018;-82
2021/05/19 00:13:35;;;;;;;1.70;1.60;;;9.70;99.90;;;;;;5032453;28;20030;-81
2021/05/19 00:16:02;;;;;;;1.67;1.58;;;9.60;99.90;;;;;;5032389;28;20051;-81
2021/05/19 00:18:28;;;;;;;1.75;1.65;;;9.60;99.90;;;;;;5032611;28;20060;-81
2021/05/19 00:20:54;;;;;;;1.60;1.50;;;9.50;99.90;;;;;;5032457;28;20519;-82
2021/05/19 00:23:20;;;;;;;1.80;1.70;;;9.50;99.90;;;;;;5015137;28;20033;-81
2021/05/19 00:25:46;;;;;;;1.70;1.60;;;9.50;99.90;;;;;;5032317;28;20036;-81
2021/05/19 00:28:12;;;;;;;2.50;1.70;;;9.40;99.90;;;;;;5032206;28;20071;-81
2021/05/19 00:30:38;;;;;;;2.42;1.92;;;9.40;99.90;;;;;;5032284;28;20028;-82
2021/05/19 00:33:05;;;;;;;1.80;1.70;;;9.40;99.90;;;;;;5032016;28;20045;-82
2021/05/19 00:35:31;;;;;;;2.45;1.73;;;9.40;99.90;;;;;;5031806;28;20017;-81
2021/05/19 00:37:57;;;;;;;1.83;1.73;;;9.40;99.90;;;;;;5031997;28;20044;-83
2021/05/19 00:40:22;;;;;;;1.77;1.67;;;9.40;99.90;;;;;;5032075;28;20029;-82
2021/05/19 00:42:48;;;;;;;2.25;1.58;;;9.30;99.90;;;;;;5032416;28;20029;-82
2021/05/19 00:45:14;;;;;;;2.13;1.92;;;9.30;99.90;;;;;;5019688;28;20026;-82
2021/05/19 00:47:42;;;;;;;2.80;1.92;;;9.30;99.90;;;;;;5030526;28;20021;-81
2021/05/19 00:50:12;;;;;;;1.80;1.70;;;9.30;99.90;;;;;;5031808;28;20029;-81
2021/05/19 00:52:38;;;;;;;2.35;1.77;;;9.30;99.90;;;;;;5031958;28;20092;-82
2021/05/19 00:55:05;;;;;;;1.98;1.77;;;9.30;99.90;;;;;;5031787;28;20025;-78
2021/05/19 00:57:31;;;;;;;2.38;2.13;;;9.20;99.90;;;;;;5031675;28;20029;-78
2021/05/19 00:59:58;;;;;;;2.10;1.90;;;9.20;99.90;;;;;;5024332;28;20022;-78
2021/05/19 01:02:24;;;;;;;2.40;1.80;;;9.20;99.90;;;;;;5025653;28;20113;-78
2021/05/19 01:04:50;;;;;;;2.00;1.80;;;9.20;99.90;;;;;;5032062;28;20094;-84
2021/05/19 01:09:42;;;;;;;4.82;2.00;;;9.20;99.90;;;;;;5027951;28;20549;-85
2021/05/19 01:12:14;;;;;;;3.10;2.00;;;9.20;99.90;;;;;;5021847;28;20029;-85
2021/05/19 01:14:40;;;;;;;2.08;1.90;;;9.20;99.90;;;;;;5031883;28;20485;-85
2021/05/19 01:17:07;;;;;;;2.00;1.90;;;9.10;99.90;;;;;;5031740;28;20562;-85
2021/05/19 01:19:38;;;;;;;3.50;1.95;;;9.10;99.90;;;;;;5014232;28;20032;-85
2021/05/19 01:22:08;;;;;;;2.15;1.95;;;9.10;99.90;;;;;;5031960;28;20049;-85
2021/05/19 01:24:35;;;;;;;2.17;1.98;;;9.20;99.90;;;;;;5031853;28;20054;-80
2021/05/19 01:27:01;;;;;;;1.90;1.80;;;9.10;99.90;;;;;;5017765;28;20028;-80
2021/05/19 01:29:26;;;;;;;1.80;1.70;;;9.20;99.90;;;;;;5031639;28;20029;-80
2021/05/19 01:31:52;;;;;;;2.10;1.80;;;9.20;99.90;;;;;;5013735;28;20036;-80
2021/05/19 01:34:18;;;;;;;2.17;1.90;;;9.20;99.90;;;;;;5031323;28;20022;-80
2021/05/19 01:36:44;;;;;;;2.00;1.80;;;9.10;99.90;;;;;;5031285;28;20049;-80
2021/05/19 01:39:10;;;;;;;2.47;2.10;;;9.10;99.90;;;;;;5031441;28;20358;-81
2021/05/19 01:41:36;;;;;;;2.50;1.95;;;9.10;99.90;;;;;;5031567;28;20032;-81
2021/05/19 01:44:14;;;;;;;2.30;2.10;;;9.10;99.90;;;;;;5031191;28;20380;-79
2021/05/19 01:46:40;;;;;;;2.17;2.05;;;9.10;99.90;;;;;;5031168;28;20029;-79
2021/05/19 01:49:08;;;;;;;1.98;1.88;;;9.10;99.90;;;;;;5031315;28;20037;-79
2021/05/19 01:51:36;;;;;;;2.10;1.90;;;9.10;99.90;;;;;;5031182;28;20646;-79
2021/05/19 01:54:04;;;;;;;1.80;1.70;;;9.10;99.90;;;;;;5017306;28;20030;-78
2021/05/19 01:56:30;;;;;;;2.20;2.00;;;9.10;99.90;;;;;;5031277;28;20357;-79
2021/05/19 01:58:57;;;;;;;2.10;1.90;;;9.10;99.90;;;;;;5029662;28;20036;-79
2021/05/19 02:01:24;;;;;;;2.25;2.05;;;9.10;99.90;;;;;;5031145;28;20029;-78
2021/05/19 02:03:50;;;;;;;2.00;1.80;;;9.10;99.90;;;;;;5030977;28;20030;-79
2021/05/19 02:06:16;;;;;;;2.13;1.92;;;9.10;99.90;;;;;;5031092;28;20063;-78
2021/05/19 02:08:42;;;;;;;1.80;1.70;;;9.10;99.90;;;;;;5031387;28;20018;-78
2021/05/19 02:11:08;;;;;;;2.55;2.35;;;9.10;99.90;;;;;;5031102;28;20083;-78
2021/05/19 02:13:33;;;;;;;1.95;1.85;;;9.00;99.90;;;;;;5030906;28;20694;-81
2021/05/19 02:15:59;;;;;;;2.83;2.00;;;9.00;99.90;;;;;;5031166;28;20021;-83
2021/05/19 02:18:25;;;;;;;2.10;2.00;;;9.00;99.90;;;;;;5031316;28;20535;-78
2021/05/19 02:20:51;;;;;;;2.47;2.00;;;9.00;99.90;;;;;;5034170;28;20048;-78
2021/05/19 02:23:16;;;;;;;2.08;1.92;;;9.00;99.90;;;;;;5017005;28;20477;-86
2021/05/19 02:25:42;;;;;;;2.00;1.80;;;9.00;99.90;;;;;;5034909;28;20025;-86
2021/05/19 02:28:08;;;;;;;2.65;2.13;;;9.00;99.90;;;;;;5034828;28;20099;-86
2021/05/19 02:30:35;;;;;;;1.92;1.75;;;9.00;99.90;;;;;;5034809;28;20108;-84
2021/05/19 02:33:03;;;;;;;2.05;1.90;;;9.00;99.90;;;;;;5034434;28;20037;-85
2021/05/19 02:35:29;;;;;;;1.92;1.83;;;9.00;99.90;;;;;;5034421;28;20079;-84
2021/05/19 02:37:55;;;;;;;2.25;2.05;;;9.00;99.90;;;;;;5035072;28;20037;-85
2021/05/19 02:40:20;;;;;;;2.55;1.98;;;9.00;99.90;;;;;;5038789;28;20030;-90
2021/05/19 02:42:46;;;;;;;2.10;1.90;;;9.10;99.90;;;;;;5031268;28;20053;-87
2021/05/19 02:45:13;;;;;;;1.90;1.80;;;9.00;99.90;;;;;;5032070;28;20029;-91
2021/05/19 02:47:39;;;;;;;2.20;2.00;;;9.10;99.90;;;;;;5037364;28;20029;-88
2021/05/19 02:50:06;;;;;;;2.95;1.90;;;9.00;99.90;;;;;;5037873;28;20389;-90
2021/05/19 02:52:31;;;;;;;2.10;1.90;;;9.00;99.90;;;;;;5038405;28;20037;-91
2021/05/19 02:54:57;;;;;;;2.20;1.98;;;9.10;99.90;;;;;;5037935;28;20029;-89
2021/05/19 02:57:23;;;;;;;2.13;1.92;;;9.10;99.90;;;;;;5021459;28;20113;-89
2021/05/19 02:59:49;;;;;;;2.65;2.00;;;9.10;99.90;;;;;;5025188;28;20025;-90
2021/05/19 03:02:14;;;;;;;2.28;2.03;;;9.20;99.90;;;;;;5036564;28;20112;-89
2021/05/19 03:04:40;;;;;;;1.83;1.67;;;9.20;99.90;;;;;;5036446;28;20461;-88
2021/05/19 03:07:06;;;;;;;2.28;1.88;;;9.20;99.90;;;;;;5036281;28;20097;-90
2021/05/19 03:09:32;;;;;;;1.70;1.60;;;9.20;99.90;;;;;;5035520;28;20030;-86
2021/05/19 03:11:57;;;;;;;3.75;1.95;;;9.20;99.90;;;;;;5024296;28;20039;-90
2021/05/19 03:14:23;;;;;;;1.90;1.80;;;9.30;99.90;;;;;;5034805;28;20056;-84
2021/05/19 03:16:49;;;;;;;1.90;1.58;;;9.20;99.90;;;;;;5034052;28;20049;-83
2021/05/19 03:19:15;;;;;;;6.43;2.10;;;9.30;99.90;;;;;;5033901;28;20091;-84
2021/05/19 03:21:40;;;;;;;4.13;1.90;;;9.20;99.90;;;;;;5029358;28;20029;-83
2021/05/19 03:24:06;;;;;;;3.47;1.40;;;9.20;99.90;;;;;;5024323;28;20435;-84
2021/05/19 03:26:32;;;;;;;12.20;2.03;;;9.20;99.90;;;;;;5033877;28;20029;-85
2021/05/19 03:28:58;;;;;;;3.60;2.00;;;9.30;99.90;;;;;;5033674;28;20453;-84
2021/05/19 03:31:24;;;;;;;2.53;1.88;;;9.30;99.90;;;;;;5032469;28;20029;-84
2021/05/19 03:33:50;;;;;;;1.70;1.60;;;9.30;99.90;;;;;;5033697;28;20080;-83
2021/05/19 03:36:16;;;;;;;3.00;2.30;;;9.40;99.90;;;;;;5033695;28;20053;-87
2021/05/19 03:38:42;;;;;;;2.70;1.60;;;9.40;99.90;;;;;;5033916;28;20033;-87
2021/05/19 03:41:08;;;;;;;1.80;1.70;;;9.40;99.90;;;;;;5033877;28;20025;-86
2021/05/19 03:43:35;;;;;;;1.55;1.45;;;9.50;99.90;;;;;;5034135;28;20064;-84
2021/05/19 03:46:00;;;;;;;1.77;1.63;;;9.50;99.90;;;;;;5025035;28;20112;-78
2021/05/19 03:48:27;;;;;;;4.10;1.50;;;9.50;99.90;;;;;;5028305;28;20611;-78
2021/05/19 03:50:53;;;;;;;1.83;1.50;;;9.50;99.90;;;;;;5033186;28;20551;-78
2021/05/19 03:53:19;;;;;;;1.70;1.60;;;9.60;99.90;;;;;;5033132;28;20136;-84
2021/05/19 03:55:45;;;;;;;1.77;1.52;;;9.60;99.90;;;;;;5033141;28;20180;-80
2021/05/19 03:58:12;;;;;;;3.35;1.50;;;9.60;99.90;;;;;;5032793;28;20047;-79
2021/05/19 04:00:39;;;;;;;2.58;1.40;;;9.60;99.90;;;;;;5032862;28;20088;-79
2021/05/19 04:03:05;;;;;;;6.03;1.50;;;9.70;99.90;;;;;;5032998;28;20029;-79
2021/05/19 04:05:35;;;;;;;2.15;1.58;;;9.70;99.90;;;;;;5032720;28;20080;-79
2021/05/19 04:08:02;;;;;;;3.08;1.55;;;9.70;99.90;;;;;;5032791;28;20025;-79
2021/05/19 04:10:28;;;;;;;3.00;1.58;;;9.70;99.90;;;;;;5033204;28;20033;-79
2021/05/19 04:12:53;;;;;;;3.20;1.35;;;9.80;99.90;;;;;;5032524;28;20042;-80
2021/05/19 04:15:22;;;;;;;3.55;1.40;;;9.80;99.90;;;;;;5032706;28;20037;-79
2021/05/19 04:17:48;;;;;;;2.20;1.60;;;9.80;99.90;;;;;;5032675;28;20087;-80
2021/05/19 04:20:14;;;;;;;4.20;1.65;;;9.90;99.90;;;;;;5032441;28;20017;-80
2021/05/19 04:22:40;;;;;;;2.33;1.48;;;9.90;99.90;;;;;;5032331;28;20029;-79
2021/05/19 04:25:07;;;;;;;1.50;1.40;;;9.90;99.90;;;;;;5032216;28;20021;-79
2021/05/19 04:27:33;;;;;;;1.95;1.23;;;10.00;99.90;;;;;;5032191;28;20501;-77
2021/05/19 04:29:59;;;;;;;6.40;1.40;;;10.00;99.90;;;;;;5033114;28;20033;-80
2021/05/19 04:32:25;;;;;;;2.30;1.10;;;10.00;99.90;;;;;;5032288;28;20455;-80
2021/05/19 04:34:51;;;;;;;1.70;1.17;;;10.10;99.90;;;;;;5032391;28;20104;-85
2021/05/19 04:37:17;;;;;;;1.95;1.20;;;10.10;99.90;;;;;;5032105;28;20132;-79
2021/05/19 04:39:42;;;;;;;1.67;1.30;;;10.10;99.90;;;;;;5032404;28;20469;-79
2021/05/19 04:42:09;;;;;;;1.48;1.02;;;10.20;99.90;;;;;;5031840;28;20040;-76
2021/05/19 04:44:34;;;;;;;1.20;1.10;;;10.30;99.90;;;;;;5032376;28;20446;-77
2021/05/19 04:47:00;;;;;;;2.20;1.23;;;10.20;99.90;;;;;;5017824;28;20025;-74
2021/05/19 04:49:26;;;;;;;2.08;1.38;;;10.30;99.90;;;;;;5031906;28;20029;-77
2021/05/19 04:51:52;;;;;;;6.50;1.33;;;10.30;99.90;;;;;;5000263;28;20038;-76
2021/05/19 04:54:19;;;;;;;2.70;1.15;;;10.30;99.90;;;;;;5031799;28;20020;-76
2021/05/19 04:56:45;;;;;;;4.32;1.27;;;10.40;99.90;;;;;;5032050;28;20385;-75
2021/05/19 04:59:10;;;;;;;3.30;1.30;;;10.40;99.90;;;;;;5031803;28;20018;-74
2021/05/19 05:01:36;;;;;;;3.10;1.42;;;10.40;99.90;;;;;;5031875;28;20389;-76
2021/05/19 05:04:02;;;;;;;0.90;0.90;;;10.50;99.90;;;;;;5031718;28;20484;-76
2021/05/19 05:06:28;;;;;;;0.88;0.88;;;10.50;99.90;;;;;;5031777;28;20187;-80
2021/05/19 05:08:54;;;;;;;4.03;1.00;;;10.60;99.90;;;;;;5013955;28;20029;-76
2021/05/19 05:11:20;;;;;;;5.35;0.90;;;10.60;99.90;;;;;;5031851;28;20079;-76
2021/05/19 05:13:46;;;;;;;10.27;1.08;;;10.60;99.90;;;;;;5031691;28;20087;-76
2021/05/19 05:16:14;;;;;;;2.42;1.15;;;10.60;99.90;;;;;;5031978;28;20110;-76
2021/05/19 05:18:41;;;;;;;0.98;0.98;;;10.70;99.90;;;;;;5031640;28;20053;-76
2021/05/19 05:21:09;;;;;;;1.23;0.90;;;10.70;99.90;;;;;;5031299;28;20473;-76
2021/05/19 05:23:35;;;;;;;1.10;1.00;;;10.70;99.90;;;;;;5031574;28;20104;-76
2021/05/19 05:26:02;;;;;;;5.20;1.05;;;10.80;99.90;;;;;;5031625;28;20113;-76
2021/05/19 05:28:28;;;;;;;1.55;1.00;;;10.80;99.90;;;;;;5017684;28;20417;-74
2021/05/19 05:30:55;;;;;;;3.85;0.90;;;10.80;99.90;;;;;;5031868;28;20029;-76
2021/05/19 05:33:21;;;;;;;5.28;0.77;;;10.90;99.90;;;;;;5030985;28;20542;-76
2021/05/19 05:35:47;;;;;;;0.82;0.82;;;10.90;99.90;;;;;;5031411;28;20037;-76
2021/05/19 05:38:13;;;;;;;2.10;0.70;;;10.90;99.90;;;;;;5031278;28;20504;-75
2021/05/19 05:40:39;;;;;;;1.67;0.70;;;10.90;99.90;;;;;;5031525;28;20025;-75
2021/05/19 05:43:04;;;;;;;2.53;0.85;;;11.00;99.90;;;;;;5031116;28;20500;-76
2021/05/19 05:45:30;;;;;;;3.53;0.80;;;11.00;99.90;;;;;;5031178;28;20049;-75
2021/05/19 05:47:57;;;;;;;1.58;0.70;;;11.10;99.90;;;;;;5031278;28;20022;-75
2021/05/19 05:50:25;;;;;;;0.80;0.80;;;11.10;99.90;;;;;;5028322;28;20584;-75
2021/05/19 05:52:51;;;;;;;1.05;0.77;;;11.10;99.90;;;;;;5020191;28;20059;-76
2021/05/19 05:55:16;;;;;;;1.13;0.90;;;11.20;99.90;;;;;;5015372;28;20381;-76
2021/05/19 05:57:42;;;;;;;1.42;0.70;;;11.20;99.90;;;;;;5017238;28;20052;-76
2021/05/19 06:00:12;;;;;;;0.80;0.80;;;11.30;99.90;;;;;;5021931;28;20026;-76
2021/05/19 06:02:38;;;;;;;5.13;0.80;;;11.30;99.90;;;;;;5034974;28;20083;-72
2021/05/19 06:05:04;;;;;;;0.50;0.50;;;11.40;99.90;;;;;;5023348;28;20475;-73
2021/05/19 06:07:29;;;;;;;0.60;0.57;;;11.40;99.90;;;;;;5028827;28;20029;-76
2021/05/19 06:09:55;;;;;;;8.82;1.55;;;11.50;99.90;;;;;;5035056;28;20067;-73
2021/05/19 06:12:21;;;;;;;2.20;0.60;;;11.50;99.90;;;;;;5034507;28;20045;-76
2021/05/19 06:14:47;;;;;;;1.02;0.65;;;11.60;99.90;;;;;;5034804;28;20028;-74
2021/05/19 06:17:14;;;;;;;3.80;0.50;;;11.60;99.90;;;;;;5034653;28;20032;-76
2021/05/19 06:19:41;;;;;;;1.38;0.85;;;11.70;99.90;;;;;;5034710;28;20607;-76
2021/05/19 06:22:08;;;;;;;2.63;0.60;;;11.70;99.90;;;;;;5035060;28;20057;-76
2021/05/19 06:24:34;;;;;;;0.60;0.60;;;11.80;99.90;;;;;;5034587;28;20052;-76
2021/05/19 06:26:59;;;;;;;0.50;0.50;;;11.90;99.90;;;;;;5034913;28;20377;-75
2021/05/19 06:29:25;;;;;;;0.50;0.50;;;11.90;99.90;;;;;;5028365;28;20041;-75
2021/05/19 06:31:51;;;;;;;0.40;0.40;;;12.00;99.90;;;;;;5030452;28;20026;-78
2021/05/19 06:34:16;;;;;;;6.13;0.88;;;12.00;99.90;;;;;;5031189;28;20532;-80
2021/05/19 06:36:46;;;;;;;2.47;0.30;;;12.30;99.90;;;;;;5034309;28;20459;-77
2021/05/19 06:39:12;;;;;;;1.98;0.40;;;12.60;99.90;;;;;;5034240;28;20132;-77
2021/05/19 06:41:42;;;;;;;0.20;0.20;;;12.60;99.90;;;;;;5034249;28;20021;-77
2021/05/19 06:44:08;;;;;;;0.40;0.40;;;12.50;99.90;;;;;;5034273;28;20017;-77
2021/05/19 06:46:33;;;;;;;0.28;0.28;;;12.50;99.90;;;;;;5034121;28;20032;-78
2021/05/19 06:49:03;;;;;;;0.40;0.40;;;12.40;99.90;;;;;;5034218;28;20025;-78
2021/05/19 06:51:32;;;;;;;0.35;0.35;;;12.40;99.90;;;;;;5033938;28;20021;-78
2021/05/19 06:53:58;;;;;;;2.20;0.35;;;12.40;99.90;;;;;;5034020;28;20059;-77
2021/05/19 06:56:25;;;;;;;1.77;0.30;;;12.50;99.90;;;;;;5033853;28;20472;-76
2021/05/19 06:58:51;;;;;;;0.82;0.60;;;12.50;99.90;;;;;;5034075;28;20105;-78
2021/05/19 07:01:17;;;;;;;0.90;0.43;;;12.50;99.90;;;;;;5033965;28;20382;-78
2021/05/19 07:03:43;;;;;;;0.63;0.52;;;13.00;99.90;;;;;;5033828;28;20495;-77
2021/05/19 07:06:08;;;;;;;0.30;0.30;;;13.00;99.90;;;;;;5032476;28;20025;-75
2021/05/19 07:08:34;;;;;;;0.30;0.30;;;12.90;99.90;;;;;;5033985;28;20025;-75
2021/05/19 07:11:00;;;;;;;0.20;0.20;;;12.90;99.90;;;;;;5033683;28;20025;-75
2021/05/19 07:13:28;;;;;;;0.30;0.30;;;12.90;99.90;;;;;;5033528;28;20033;-75
2021/05/19 07:15:55;;;;;;;0.20;0.20;;;12.90;99.90;;;;;;5034047;28;20131;-75
2021/05/19 07:18:21;;;;;;;0.30;0.30;;;12.90;99.90;;;;;;5033743;28;20104;-75
2021/05/19 07:20:47;;;;;;;1.75;0.30;;;12.90;99.90;;;;;;5033762;28;20075;-75
2021/05/19 07:23:14;;;;;;;0.43;0.40;;;13.00;99.90;;;;;;5033319;28;20021;-76
2021/05/19 07:25:41;;;;;;;0.30;0.30;;;13.00;99.90;;;;;;5033734;28;20083;-76
2021/05/19 07:28:08;;;;;;;0.30;0.30;;;13.00;99.90;;;;;;5033385;28;20025;-72
2021/05/19 07:30:38;;;;;;;0.20;0.20;;;13.00;99.90;;;;;;5033276;28;20068;-72
2021/05/19 07:33:05;;;;;;;;;;;13.10;99.90;;;;;;5033634;28;20080;-72
2021/05/19 07:35:31;;;;;;;0.30;0.30;;;13.10;99.90;;;;;;5033025;28;19905;-75
2021/05/19 07:37:57;;;;;;;0.40;0.40;;;13.30;99.90;;;;;;5021008;28;20040;-76
2021/05/19 07:40:23;;;;;;;0.30;0.30;;;13.30;99.90;;;;;;5031861;28;20026;-76
2021/05/19 07:42:49;;;;;;;0.40;0.30;;;13.40;99.90;;;;;;5033817;28;20030;-76
2021/05/19 07:45:16;;;;;;;3.10;0.40;;;13.40;99.80;;;;;;5033334;28;20057;-77
2021/05/19 07:47:42;;;;;;;0.30;0.30;;;13.50;99.10;;;;;;5033236;28;20029;-78
2021/05/19 07:50:08;;;;;;;0.60;0.40;;;13.50;97.80;;;;;;5033249;28;20025;-78
2021/05/19 07:52:34;;;;;;;0.20;0.20;;;13.50;97.90;;;;;;5032300;28;20396;-79
2021/05/19 07:55:03;;;;;;;0.28;0.28;;;13.50;97.40;;;;;;5024112;28;20022;-79
2021/05/19 07:57:47;;;;;;;0.40;0.30;;;13.60;97.40;;;;;;5032078;28;20385;-78
2021/05/19 08:00:21;;;;;;;0.25;0.25;;;13.70;96.70;;;;;;5032765;28;20022;-78
2021/05/19 08:02:47;;;;;;;0.30;0.30;;;13.80;94.50;;;;;;5025838;28;20037;-78
2021/05/19 08:05:14;;;;;;;0.93;0.25;;;13.70;91.40;;;;;;5020562;28;20021;-77
2021/05/19 08:07:39;;;;;;;0.20;0.20;;;13.70;90.00;;;;;;5014740;28;20053;-78
2021/05/19 08:10:06;;;;;;;0.30;0.22;;;13.60;90.30;;;;;;5015151;28;20045;-78
2021/05/19 08:12:32;;;;;;;9.60;0.82;;;13.70;90.40;;;;;;5032812;28;20046;-74
2021/05/19 08:14:58;;;;;;;1.55;0.30;;;13.70;93.50;;;;;;5027244;28;20014;-76
2021/05/19 08:17:23;;;;;;;0.30;0.30;;;13.90;92.80;;;;;;5023563;28;20071;-78
2021/05/19 08:19:49;;;;;;;0.32;0.32;;;13.90;91.20;;;;;;5032624;28;20093;-77
2021/05/19 08:22:15;;;;;;;0.30;0.30;;;13.90;90.80;;;;;;5032888;28;20048;-81
2021/05/19 08:24:44;;;;;;;0.32;0.30;;;13.90;88.50;;;;;;5032407;28;20429;-77
2021/05/19 08:27:11;;;;;;;0.20;0.20;;;13.90;84.90;;;;;;5032387;28;20022;-78
2021/05/19 08:29:37;;;;;;;1.33;0.40;;;13.90;85.00;;;;;;5032385;28;20033;-77
2021/05/19 08:32:04;;;;;;;0.30;0.30;;;14.00;85.20;;;;;;5018640;28;20021;-72
2021/05/19 08:34:30;;;;;;;0.30;0.30;;;13.90;83.20;;;;;;5032285;28;20424;-75
2021/05/19 08:36:56;;;;;;;0.45;0.40;;;14.00;83.40;;;;;;5031894;28;20041;-72
2021/05/19 08:39:22;;;;;;;3.10;0.52;;;14.00;84.30;;;;;;5032175;28;20508;-74
2021/05/19 08:41:49;;;;;;;0.22;0.22;;;14.40;93.30;;;;;;5032211;28;20056;-70
2021/05/19 08:44:16;;;;;;;0.25;0.25;;;14.50;83.40;;;;;;5032035;28;20519;-70
2021/05/19 08:46:44;;;;;;;0.57;0.40;;;14.40;82.90;;;;;;5031976;28;20559;-70
2021/05/19 08:49:11;;;;;;;0.30;0.30;;;14.30;80.00;;;;;;5031912;28;20075;-69
2021/05/19 08:51:37;;;;;;;1.83;0.25;;;14.20;82.20;;;;;;5031857;28;20104;-71
2021/05/19 08:54:05;;;;;;;3.83;0.50;;;14.50;90.60;;;;;;5029714;28;20473;-70
2021/05/19 08:56:31;;;;;;;0.63;0.30;;;14.60;83.80;;;;;;5031946;28;20034;-70
2021/05/19 08:58:57;;;;;;;2.78;0.30;;;14.60;80.60;;;;;;5030478;28;20361;-71
2021/05/19 09:01:24;;;;;;;0.20;0.20;;;14.50;79.40;;;;;;5030715;28;20079;-71
2021/05/19 09:04:03;;;;;;;0.30;0.30;;;14.40;79.90;;;;;;5031488;28;20567;-70
2021/05/19 09:06:29;;;;;;;1.00;0.47;;;14.40;77.60;;;;;;5027367;28;20036;-70
2021/05/19 09:08:55;;;;;;;0.70;0.45;;;14.30;78.50;;;;;;5031601;28;20033;-70
2021/05/19 09:11:21;;;;;;;0.30;0.30;;;14.20;80.40;;;;;;5031631;28;20025;-70
2021/05/19 09:13:47;;;;;;;0.22;0.22;;;14.20;81.70;;;;;;5031626;28;20482;-70
2021/05/19 09:16:25;;;;;;;0.20;0.20;;;14.30;81.20;;;;;;5029874;28;20362;-71
2021/05/19 09:18:53;;;;;;;0.95;0.20;;;14.30;81.20;;;;;;5021174;28;20025;-71
2021/05/19 09:21:38;;;;;;;0.30;0.30;;;14.30;80.30;;;;;;5031549;28;20079;-71
2021/05/19 09:24:19;;;;;;;0.30;0.30;;;14.30;79.90;;;;;;5031320;28;20034;-71
2021/05/19 09:27:11;;;;;;;1.65;0.28;;;14.30;79.10;;;;;;5031417;28;20381;-71
2021/05/19 09:29:39;;;;;;;0.20;0.20;;;14.30;77.10;;;;;;5026709;28;20112;-70
2021/05/19 09:32:05;;;;;;;0.22;0.22;;;14.30;77.70;;;;;;5031373;28;20516;-71
2021/05/19 09:34:37;;;;;;;0.20;0.20;;;14.30;78.60;;;;;;5031113;28;20037;-71
2021/05/19 09:37:14;;;;;;;0.30;0.30;;;14.30;78.70;;;;;;5030957;28;20124;-71
2021/05/19 09:40:01;;;;;;;0.30;0.30;;;14.40;78.60;;;;;;5031342;28;20037;-71
2021/05/19 09:42:36;;;;;;;1.23;0.45;;;14.30;79.20;;;;;;5019106;28;20025;-70
2021/05/19 09:45:15;;;;;;;5.93;0.30;;;14.30;78.70;;;;;;5017177;28;20030;-71
2021/05/19 09:47:42;;;;;;;0.20;0.20;;;14.30;80.80;;;;;;5031247;28;20064;-71
2021/05/19 09:50:12;;;;;;;1.85;0.30;;;14.30;79.10;;;;;;5031132;28;20109;-70
2021/05/19 09:52:38;;;;;;;0.60;0.45;;;14.30;79.80;;;;;;5031384;28;20396;-71
2021/05/19 09:55:05;;;;;;;3.28;0.30;;;14.30;80.00;;;;;;5031456;28;20025;-71
2021/05/19 09:57:44;;;;;;;3.10;0.40;;;14.30;80.30;;;;;;5031034;28;20079;-71
2021/05/19 10:00:14;;;;;;;2.13;0.43;;;14.30;79.20;;;;;;5031301;28;20033;-71
2021/05/19 10:02:41;;;;;;;0.43;0.35;;;14.30;80.90;;;;;;5031321;28;20050;-71
2021/05/19 10:05:33;;;;;;;1.77;0.38;;;14.30;82.40;;;;;;5001451;28;20457;-71
2021/05/19 10:07:55;;;;;;;3.80;0.60;;;14.40;82.30;;;;;;5013917;28;20038;-71
2021/05/19 10:10:25;;;;;;;0.30;0.30;;;14.30;83.40;;;;;;5031120;28;20014;-71
2021/05/19 10:12:50;;;;;;;0.82;0.50;;;14.30;82.80;;;;;;5030919;28;20040;-70
2021/05/19 10:15:25;;;;;;;0.30;0.30;;;14.30;83.80;;;;;;5030853;28;20022;-71
2021/05/19 10:18:15;;;;;;;0.52;0.52;;;14.30;83.50;;;;;;5031273;28;20026;-71
2021/05/19 10:20:43;;;;;;;5.28;0.90;;;14.30;82.50;;;;;;5031301;28;20021;-71
2021/05/19 10:23:13;;;;;;;2.08;0.60;;;14.30;82.60;;;;;;5030988;28;20079;-71
2021/05/19 10:25:43;;;;;;;;;;;14.30;82.50;;;;;;5031343;28;20029;-71
2021/05/19 10:28:14;;;;;;;0.63;0.57;;;14.20;80.70;;;;;;5030710;28;20541;-71
2021/05/19 10:30:50;;;;;;;4.25;0.73;;;14.20;82.60;;;;;;5030817;28;20026;-70
2021/05/19 10:33:37;;;;;;;2.30;0.70;;;14.30;82.90;;;;;;5030651;28;20099;-71
2021/05/19 10:36:24;;;;;;;1.33;0.50;;;14.20;85.40;;;;;;5030756;28;20497;-71
2021/05/19 10:39:16;;;;;;;0.50;0.50;;;14.30;83.40;;;;;;5030987;28;20022;-71
2021/05/19 10:41:45;;;;;;;0.55;0.55;;;14.30;83.30;;;;;;5022737;28;20084;-71
2021/05/19 10:44:13;;;;;;;15.40;1.23;;;14.30;82.90;;;;;;5034499;28;20017;-71
2021/05/19 10:49:54;;;;;;;4.03;0.40;;;14.30;79.40;;;;;;5034513;28;20031;-71
2021/05/19 10:52:35;;;;;;;0.40;0.40;;;14.30;79.30;;;;;;5034021;28;20620;-71
2021/05/19 10:57:54;;;;;;;2.40;0.60;;;14.30;78.50;;;;;;5034155;28;20054;-71
2021/05/19 11:00:22;;;;;;;5.53;1.73;;;14.20;78.70;;;;;;5034211;28;20048;-71
2021/05/19 11:05:20;;;;;;;4.30;0.80;;;14.10;78.40;;;;;;5034210;28;20044;-71
2021/05/19 11:08:05;;;;;;;2.65;0.70;;;14.10;79.60;;;;;;5033693;28;20109;-71
2021/05/19 11:10:51;;;;;;;0.70;0.50;;;14.20;79.50;;;;;;5033796;28;20488;-71
2021/05/19 11:13:19;;;;;;;4.88;0.85;;;14.10;80.00;;;;;;5033936;28;20126;-70
2021/05/19 11:19:09;;;;;;;2.70;0.60;;;14.20;82.70;;;;;;5033831;28;20497;-71
2021/05/19 11:21:35;;;;;;;1.90;0.90;;;14.20;84.90;;;;;;5033612;28;20025;-71
2021/05/19 11:24:06;;;;;;;0.70;0.60;;;14.30;83.90;;;;;;5033853;28;20029;-71
2021/05/19 11:26:37;;;;;;;0.50;0.50;;;14.20;81.10;;;;;;5033379;28;20025;-71
2021/05/19 11:29:03;;;;;;;3.17;0.80;;;14.30;81.30;;;;;;5033677;28;20595;-71
2021/05/19 11:31:37;;;;;;;0.50;0.50;;;14.30;82.70;;;;;;5033139;28;20128;-71
2021/05/19 11:34:04;;;;;;;1.45;0.60;;;14.30;80.60;;;;;;5033407;28;20071;-71
2021/05/19 11:36:31;;;;;;;0.55;0.50;;;14.30;80.30;;;;;;5033031;28;20056;-71
2021/05/19 11:39:00;;;;;;;3.65;0.70;;;14.30;82.50;;;;;;5033701;28;20026;-71
2021/05/19 11:41:26;;;;;;;0.73;0.63;;;14.30;83.70;;;;;;5015536;28;20469;-71
2021/05/19 11:43:51;;;;;;;1.42;0.60;;;14.30;81.60;;;;;;5033164;28;20025;-71
2021/05/19 11:46:17;;;;;;;0.70;0.60;;;14.40;82.30;;;;;;5014794;28;20392;-71
2021/05/19 11:48:49;;;;;;;7.50;1.40;;;14.40;82.60;;;;;;5032884;28;20058;-71
2021/05/19 11:51:23;;;;;;;3.97;0.90;;;14.30;83.30;;;;;;5033161;28;20158;-71
2021/05/19 11:53:59;;;;;;;5.28;1.00;;;14.20;84.50;;;;;;5029361;28;20417;-71
2021/05/19 11:56:40;;;;;;;4.40;1.40;;;14.10;86.40;;;;;;5023775;28;20473;-71
2021/05/19 11:59:29;;;;;;;11.27;1.50;;;14.10;86.00;;;;;;5033040;28;20025;-71
2021/05/19 12:02:06;;;;;;;1.90;1.40;;;14.10;86.30;;;;;;5032826;28;20025;-70
2021/05/19 12:04:35;;;;;;;2.30;1.60;;;14.10;87.30;;;;;;5020312;28;20108;-71
2021/05/19 12:07:05;;;;;;;5.93;1.60;;;14.10;88.90;;;;;;5032661;28;20031;-71
2021/05/19 12:09:35;;;;;;;4.43;2.17;;;14.00;90.00;;;;;;5032439;28;20027;-71
2021/05/19 12:12:16;;;;;;;7.15;1.70;;;13.90;86.90;;;;;;5015242;28;20025;-70
2021/05/19 12:14:54;;;;;;;5.13;1.45;;;13.70;88.20;;;;;;5014620;28;20021;-71
2021/05/19 12:17:26;;;;;;;2.88;1.50;;;13.70;88.40;;;;;;5033010;28;20488;-71
2021/05/19 12:19:52;;;;;;;2.85;1.13;;;13.60;89.50;;;;;;5032478;28;20025;-71
2021/05/19 12:22:22;;;;;;;3.50;1.67;;;13.60;90.00;;;;;;5005253;28;20022;-71
2021/05/19 12:24:48;;;;;;;4.93;1.30;;;13.70;88.70;;;;;;5028464;28;20065;-71
2021/05/19 12:27:19;;;;;;;8.02;1.52;;;13.60;88.80;;;;;;5032382;28;20056;-70
2021/05/19 12:29:52;;;;;;;8.10;1.27;;;13.60;89.30;;;;;;5032068;28;20437;-71
2021/05/19 12:32:27;;;;;;;4.95;1.13;;;13.60;89.00;;;;;;5032282;28;20632;-71
2021/05/19 12:35:00;;;;;;;3.10;1.42;;;13.60;90.10;;;;;;5030826;28;20508;-71
2021/05/19 12:37:46;;;;;;;1.30;1.00;;;13.60;89.20;;;;;;5020576;28;20099;-71
2021/05/19 12:40:15;;;;;;;5.32;0.75;;;13.60;88.60;;;;;;5014492;28;20476;-71
2021/05/19 12:42:43;;;;;;;4.60;0.90;;;13.60;88.40;;;;;;5032188;28;20025;-71
2021/05/19 12:45:11;;;;;;;2.08;1.13;;;13.70;89.80;;;;;;5031980;28;20562;-71
2021/05/19 12:47:37;;;;;;;6.43;0.88;;;13.70;90.00;;;;;;5032125;28;20029;-70
2021/05/19 12:50:05;;;;;;;3.53;1.05;;;13.70;90.40;;;;;;5032248;28;20032;-71
2021/05/19 12:52:36;;;;;;;3.22;0.90;;;13.60;89.10;;;;;;5031809;28;20080;-71
2021/05/19 12:55:04;;;;;;;3.90;0.98;;;13.60;87.90;;;;;;5031949;28;20017;-70
2021/05/19 12:57:32;;;;;;;1.92;1.10;;;13.60;88.00;;;;;;5031840;28;20120;-71
2021/05/19 12:59:58;;;;;;;2.35;0.82;;;13.50;88.60;;;;;;5032111;28;20033;-71
2021/05/19 13:02:45;;;;;;;0.80;0.80;;;13.50;88.80;;;;;;5031577;28;20026;-70
2021/05/19 13:05:21;;;;;;;4.32;1.10;;;13.40;89.10;;;;;;5031390;28;20061;-70
2021/05/19 13:07:50;;;;;;;3.00;0.90;;;13.40;89.30;;;;;;5029540;28;20033;-71
2021/05/19 13:13:18;;;;;;;4.45;0.80;;;13.40;91.00;;;;;;5027680;28;20111;-70